KLM701 EHAM-SAEZ
Flight info
| Callsign | KLM701 |
|---|---|
| Flight time | N/A |
| Altitude | 30000 |
| Route | IDRID L980 LAM L179 UGBET Q60 OKSAW DCT FELCA DCT FADZU DCT BANBA DCT LIMRI/M083F300 DCT 50N020W 45N030W 3930N03500W/M083F320 33N040W 24N050W/M083F340 DCT HIGNZ/N0492F340 DCT 15N055W DCT PIPUV DCT USABO UL322 BUVIP DCT KUMOS UL322 MNS/N0487F350 UZ6 UTPAM UZ87 ETAXA DCT ESDAG/N0484F360 DCT CIA DCT AKRIL/N0482F370 UZ52 XOKUD UZ63 GRD/N0479F360 UM544 VAS UP526 ASATI/N0478F380 UP526 GEMSU/N0472F370 UP526 DAYMA/N0473F380 UL324 KUKEN KUKEN7B |
| Aircraft | B77W/H-SDE1E2E3FGHIJ2J3J4J5M1RWXY/LB1D1 |
Departure
| Time | 2026-04-27 10:19 |
|---|---|
| Airport | Amsterdam Airport Schiphol (EHAM) |
Arrival
| Time | N/A |
|---|---|
| Airport | Ezeiza International Airport - Ministro Pistarini (SAEZ) |
| Time | Latitude | Longitude | Altitude | Speed | Heading |
|---|---|---|---|---|---|
| 2026-04-27 09:16 | 52.31264 | 4.76054 | 3 ft | 0 kts | 109° |
| 2026-04-27 09:58 | 52.31265 | 4.76048 | 3 ft | 3 kts | 109° |
| 2026-04-27 09:58 | 52.31274 | 4.76007 | 5 ft | 4 kts | 106° |
| 2026-04-27 09:59 | 52.31279 | 4.75968 | 6 ft | 4 kts | 87° |
| 2026-04-27 09:59 | 52.31279 | 4.75947 | 6 ft | 4 kts | 39° |
| 2026-04-27 09:59 | 52.31264 | 4.75936 | 7 ft | 4 kts | 9° |
| 2026-04-27 09:59 | 52.31240 | 4.75937 | 6 ft | 4 kts | 351° |
| 2026-04-27 10:00 | 52.31229 | 4.75940 | 5 ft | 0 kts | 357° |
| 2026-04-27 10:04 | 52.31248 | 4.75938 | 6 ft | 5 kts | 357° |
| 2026-04-27 10:04 | 52.31299 | 4.75934 | 3 ft | 9 kts | 357° |
| 2026-04-27 10:05 | 52.31365 | 4.75929 | 3 ft | 9 kts | 357° |
| 2026-04-27 10:05 | 52.31431 | 4.75923 | 3 ft | 9 kts | 357° |
| 2026-04-27 10:05 | 52.31496 | 4.75912 | 4 ft | 9 kts | 342° |
| 2026-04-27 10:05 | 52.31524 | 4.75822 | 4 ft | 9 kts | 271° |
| 2026-04-27 10:06 | 52.31520 | 4.75716 | 3 ft | 9 kts | 266° |
| 2026-04-27 10:06 | 52.31516 | 4.75606 | 3 ft | 11 kts | 266° |
| 2026-04-27 10:06 | 52.31512 | 4.75467 | 3 ft | 14 kts | 267° |
| 2026-04-27 10:06 | 52.31506 | 4.75291 | 3 ft | 16 kts | 267° |
| 2026-04-27 10:07 | 52.31500 | 4.75111 | 3 ft | 16 kts | 267° |
| 2026-04-27 10:07 | 52.31494 | 4.74930 | 4 ft | 16 kts | 266° |
| 2026-04-27 10:07 | 52.31488 | 4.74750 | 4 ft | 16 kts | 266° |
| 2026-04-27 10:07 | 52.31482 | 4.74580 | 4 ft | 14 kts | 266° |
| 2026-04-27 10:08 | 52.31476 | 4.74433 | 4 ft | 11 kts | 266° |
| 2026-04-27 10:08 | 52.31488 | 4.74335 | 4 ft | 9 kts | 311° |
| 2026-04-27 10:08 | 52.31547 | 4.74300 | 4 ft | 9 kts | 354° |
| 2026-04-27 10:08 | 52.31609 | 4.74301 | 4 ft | 9 kts | 5° |
| 2026-04-27 10:09 | 52.31672 | 4.74310 | 4 ft | 9 kts | 5° |
| 2026-04-27 10:09 | 52.31735 | 4.74317 | 4 ft | 9 kts | 2° |
| 2026-04-27 10:09 | 52.31818 | 4.74323 | 4 ft | 17 kts | 2° |
| 2026-04-27 10:09 | 52.31934 | 4.74333 | 4 ft | 15 kts | 3° |
| 2026-04-27 10:10 | 52.32020 | 4.74300 | 4 ft | 13 kts | 313° |
| 2026-04-27 10:10 | 52.32033 | 4.74157 | 3 ft | 13 kts | 271° |
| 2026-04-27 10:10 | 52.32038 | 4.74010 | 3 ft | 13 kts | 273° |
| 2026-04-27 10:10 | 52.32044 | 4.73863 | 3 ft | 13 kts | 273° |
| 2026-04-27 10:11 | 52.32048 | 4.73714 | 4 ft | 14 kts | 272° |
| 2026-04-27 10:11 | 52.32053 | 4.73554 | 4 ft | 14 kts | 272° |
| 2026-04-27 10:11 | 52.32072 | 4.73399 | 4 ft | 14 kts | 297° |
| 2026-04-27 10:11 | 52.32140 | 4.73283 | 4 ft | 15 kts | 318° |
| 2026-04-27 10:12 | 52.32227 | 4.73160 | 4 ft | 18 kts | 319° |
| 2026-04-27 10:12 | 52.32324 | 4.73024 | 4 ft | 18 kts | 319° |
| 2026-04-27 10:12 | 52.32420 | 4.72889 | 4 ft | 18 kts | 319° |
| 2026-04-27 10:12 | 52.32516 | 4.72755 | 4 ft | 18 kts | 319° |
| 2026-04-27 10:13 | 52.32612 | 4.72619 | 4 ft | 18 kts | 319° |
| 2026-04-27 10:13 | 52.32703 | 4.72474 | 4 ft | 18 kts | 312° |
| 2026-04-27 10:13 | 52.32788 | 4.72318 | 4 ft | 18 kts | 311° |
| 2026-04-27 10:13 | 52.32872 | 4.72162 | 4 ft | 18 kts | 311° |
| 2026-04-27 10:14 | 52.32956 | 4.72006 | 4 ft | 18 kts | 311° |
| 2026-04-27 10:14 | 52.33040 | 4.71850 | 4 ft | 18 kts | 311° |
| 2026-04-27 10:14 | 52.33113 | 4.71716 | 4 ft | 12 kts | 310° |
| 2026-04-27 10:14 | 52.33146 | 4.71592 | 4 ft | 12 kts | 276° |
| 2026-04-27 10:15 | 52.33133 | 4.71504 | 4 ft | 12 kts | 240° |
| 2026-04-27 10:15 | 52.33072 | 4.71412 | 4 ft | 12 kts | 219° |
| 2026-04-27 10:15 | 52.33009 | 4.71324 | 4 ft | 12 kts | 221° |
| 2026-04-27 10:15 | 52.32946 | 4.71234 | 4 ft | 12 kts | 221° |
| 2026-04-27 10:16 | 52.32885 | 4.71141 | 4 ft | 12 kts | 231° |
| 2026-04-27 10:16 | 52.32862 | 4.71013 | 3 ft | 12 kts | 269° |
| 2026-04-27 10:16 | 52.32864 | 4.70931 | 3 ft | 3 kts | 274° |
| 2026-04-27 10:16 | 52.32874 | 4.70898 | 3 ft | 4 kts | 324° |
| 2026-04-27 10:17 | 52.32900 | 4.70897 | 2 ft | 3 kts | 1° |
| 2026-04-27 10:17 | 52.32906 | 4.70898 | 2 ft | 0 kts | 1° |
| 2026-04-27 10:18 | 52.32910 | 4.70898 | 2 ft | 7 kts | 1° |
| 2026-04-27 10:18 | 52.33222 | 4.70925 | 0 ft | 84 kts | 3° |
| 2026-04-27 10:18 | 52.34048 | 4.71001 | 2 ft | 153 kts | 3° |
| 2026-04-27 10:18 | 52.35316 | 4.71109 | 88 ft | 199 kts | 3° |
| 2026-04-27 10:19 | 52.36659 | 4.71220 | 862 ft | 192 kts | 5° |
| 2026-04-27 10:19 | 52.38004 | 4.71334 | 1478 ft | 196 kts | 4° |
| 2026-04-27 10:19 | 52.39408 | 4.71476 | 1725 ft | 208 kts | 5° |
| 2026-04-27 10:19 | 52.40893 | 4.71670 | 1961 ft | 219 kts | 5° |
| 2026-04-27 10:20 | 52.42436 | 4.71865 | 2315 ft | 228 kts | 4° |
| 2026-04-27 10:20 | 52.44077 | 4.72035 | 2619 ft | 240 kts | 3° |
| 2026-04-27 10:20 | 52.45738 | 4.72191 | 3221 ft | 241 kts | 4° |
| 2026-04-27 10:20 | 52.47483 | 4.72347 | 3459 ft | 259 kts | 3° |
| 2026-04-27 10:21 | 52.49312 | 4.72492 | 3919 ft | 267 kts | 3° |
| 2026-04-27 10:21 | 52.51194 | 4.72687 | 4453 ft | 272 kts | 4° |
| 2026-04-27 10:21 | 52.53046 | 4.72895 | 5204 ft | 271 kts | 4° |
| 2026-04-27 10:21 | 52.54954 | 4.73081 | 5734 ft | 275 kts | 358° |
| 2026-04-27 10:22 | 52.56805 | 4.72362 | 6184 ft | 278 kts | 328° |
| 2026-04-27 10:22 | 52.58222 | 4.70249 | 6811 ft | 277 kts | 304° |
| 2026-04-27 10:22 | 52.59051 | 4.67361 | 7302 ft | 283 kts | 281° |
| 2026-04-27 10:22 | 52.59150 | 4.64115 | 7737 ft | 286 kts | 270° |
| 2026-04-27 10:23 | 52.59121 | 4.60827 | 8291 ft | 288 kts | 270° |
| 2026-04-27 10:23 | 52.58975 | 4.57551 | 8820 ft | 290 kts | 255° |
| 2026-04-27 10:23 | 52.58014 | 4.54620 | 9241 ft | 297 kts | 226° |
| 2026-04-27 10:23 | 52.56329 | 4.52646 | 9776 ft | 299 kts | 205° |
| 2026-04-27 10:24 | 52.54423 | 4.51312 | 10254 ft | 304 kts | 204° |
| 2026-04-27 10:24 | 52.52449 | 4.49987 | 10626 ft | 313 kts | 203° |
| 2026-04-27 10:24 | 52.50365 | 4.48594 | 10750 ft | 331 kts | 204° |
| 2026-04-27 10:24 | 52.48163 | 4.47113 | 10905 ft | 349 kts | 204° |
| 2026-04-27 10:25 | 52.45859 | 4.45547 | 11116 ft | 365 kts | 204° |
| 2026-04-27 10:25 | 52.43479 | 4.43923 | 11559 ft | 373 kts | 204° |
| 2026-04-27 10:25 | 52.41112 | 4.42169 | 12057 ft | 374 kts | 213° |
| 2026-04-27 10:25 | 52.39174 | 4.39334 | 12493 ft | 376 kts | 236° |
| 2026-04-27 10:26 | 52.37894 | 4.35689 | 13097 ft | 374 kts | 244° |
| 2026-04-27 10:26 | 52.36695 | 4.31890 | 13715 ft | 377 kts | 244° |
| 2026-04-27 10:26 | 52.35478 | 4.28071 | 14396 ft | 378 kts | 243° |
| 2026-04-27 10:26 | 52.34243 | 4.24247 | 15004 ft | 380 kts | 243° |
| 2026-04-27 10:27 | 52.33004 | 4.20455 | 15582 ft | 383 kts | 243° |
| 2026-04-27 10:27 | 52.31740 | 4.16604 | 16139 ft | 386 kts | 243° |
| 2026-04-27 10:27 | 52.30328 | 4.12848 | 16690 ft | 390 kts | 236° |
| 2026-04-27 10:27 | 52.28684 | 4.09301 | 17229 ft | 394 kts | 233° |
| 2026-04-27 10:28 | 52.26953 | 4.05819 | 17830 ft | 396 kts | 233° |
| 2026-04-27 10:28 | 52.25218 | 4.02365 | 18397 ft | 399 kts | 233° |
| 2026-04-27 10:28 | 52.23464 | 3.98834 | 18910 ft | 401 kts | 233° |
| 2026-04-27 10:28 | 52.21712 | 3.95261 | 19369 ft | 404 kts | 234° |
| 2026-04-27 10:29 | 52.19963 | 3.91658 | 19866 ft | 406 kts | 234° |
| 2026-04-27 10:29 | 52.18210 | 3.88025 | 20348 ft | 408 kts | 234° |
| 2026-04-27 10:29 | 52.16453 | 3.84377 | 20820 ft | 411 kts | 234° |
| 2026-04-27 10:29 | 52.14684 | 3.80704 | 21279 ft | 414 kts | 234° |
| 2026-04-27 10:30 | 52.12904 | 3.77012 | 21722 ft | 416 kts | 234° |
| 2026-04-27 10:30 | 52.11104 | 3.73285 | 22195 ft | 419 kts | 234° |
| 2026-04-27 10:30 | 52.09297 | 3.69551 | 22648 ft | 421 kts | 234° |
| 2026-04-27 10:30 | 52.07498 | 3.65839 | 23077 ft | 424 kts | 234° |
| 2026-04-27 10:31 | 52.05667 | 3.62064 | 23509 ft | 427 kts | 234° |
| 2026-04-27 10:31 | 52.03821 | 3.58266 | 23924 ft | 429 kts | 234° |
| 2026-04-27 10:31 | 52.01960 | 3.54440 | 24284 ft | 431 kts | 234° |
| 2026-04-27 10:31 | 52.00092 | 3.50611 | 24647 ft | 433 kts | 234° |
| 2026-04-27 10:32 | 51.98238 | 3.46736 | 25020 ft | 434 kts | 236° |
| 2026-04-27 10:32 | 51.96471 | 3.42836 | 25380 ft | 435 kts | 236° |
| 2026-04-27 10:32 | 51.94699 | 3.38850 | 25734 ft | 437 kts | 236° |
| 2026-04-27 10:32 | 51.92912 | 3.34840 | 26069 ft | 439 kts | 236° |
| 2026-04-27 10:33 | 51.91109 | 3.30833 | 26400 ft | 441 kts | 236° |
| 2026-04-27 10:33 | 51.89286 | 3.26818 | 26719 ft | 442 kts | 236° |
| 2026-04-27 10:33 | 51.87474 | 3.22787 | 27048 ft | 442 kts | 239° |
| 2026-04-27 10:33 | 51.85992 | 3.18427 | 27305 ft | 442 kts | 249° |
| 2026-04-27 10:34 | 51.84943 | 3.13746 | 27594 ft | 443 kts | 255° |
| 2026-04-27 10:34 | 51.84264 | 3.08891 | 27897 ft | 443 kts | 264° |
| 2026-04-27 10:34 | 51.83952 | 3.04003 | 28190 ft | 444 kts | 265° |
| 2026-04-27 10:34 | 51.83670 | 2.99016 | 28462 ft | 446 kts | 265° |
| 2026-04-27 10:35 | 51.83380 | 2.94013 | 28726 ft | 447 kts | 265° |
| 2026-04-27 10:35 | 51.83073 | 2.88998 | 28991 ft | 449 kts | 265° |
| 2026-04-27 10:35 | 51.82750 | 2.83965 | 29245 ft | 451 kts | 265° |
| 2026-04-27 10:35 | 51.82423 | 2.78921 | 29492 ft | 452 kts | 266° |
| 2026-04-27 10:36 | 51.82260 | 2.73843 | 29734 ft | 452 kts | 269° |
| 2026-04-27 10:36 | 51.82215 | 2.68757 | 30049 ft | 451 kts | 270° |
| 2026-04-27 10:36 | 51.82194 | 2.63757 | 30264 ft | 453 kts | 270° |
| 2026-04-27 10:36 | 51.82175 | 2.58633 | 30292 ft | 453 kts | 270° |
| 2026-04-27 10:37 | 51.82111 | 2.48465 | 30297 ft | 450 kts | 270° |
| 2026-04-27 10:37 | 51.82013 | 2.38378 | 30296 ft | 448 kts | 270° |
| 2026-04-27 10:38 | 51.81897 | 2.28367 | 30310 ft | 448 kts | 269° |
| 2026-04-27 10:38 | 51.81769 | 2.18291 | 30297 ft | 449 kts | 269° |
| 2026-04-27 10:39 | 51.81634 | 2.08193 | 30312 ft | 450 kts | 269° |
| 2026-04-27 10:39 | 51.81490 | 1.98069 | 30307 ft | 451 kts | 269° |
| 2026-04-27 10:40 | 51.81337 | 1.87917 | 30309 ft | 452 kts | 269° |
| 2026-04-27 10:40 | 51.81175 | 1.77799 | 30304 ft | 453 kts | 269° |
| 2026-04-27 10:41 | 51.81004 | 1.67624 | 30301 ft | 453 kts | 269° |
| 2026-04-27 10:41 | 51.80824 | 1.57430 | 30297 ft | 454 kts | 269° |
| 2026-04-27 10:42 | 51.80635 | 1.47239 | 30296 ft | 453 kts | 269° |
| 2026-04-27 10:42 | 51.80438 | 1.37052 | 30297 ft | 453 kts | 269° |
| 2026-04-27 10:43 | 51.80219 | 1.26874 | 30300 ft | 452 kts | 266° |
| 2026-04-27 10:43 | 51.78801 | 1.16991 | 30295 ft | 455 kts | 250° |
| 2026-04-27 10:44 | 51.76261 | 1.07620 | 30290 ft | 457 kts | 247° |
| 2026-04-27 10:44 | 51.73558 | 0.98388 | 30284 ft | 457 kts | 246° |
| 2026-04-27 10:45 | 51.70816 | 0.89116 | 30292 ft | 458 kts | 246° |
| 2026-04-27 10:45 | 51.68063 | 0.79837 | 30287 ft | 458 kts | 246° |
| 2026-04-27 10:46 | 51.65311 | 0.70570 | 30298 ft | 458 kts | 246° |
| 2026-04-27 10:46 | 51.62564 | 0.61306 | 30285 ft | 458 kts | 246° |
| 2026-04-27 10:47 | 51.59844 | 0.52124 | 30292 ft | 457 kts | 246° |
| 2026-04-27 10:47 | 51.57608 | 0.42640 | 30295 ft | 453 kts | 262° |
| 2026-04-27 10:48 | 51.57513 | 0.32579 | 30283 ft | 452 kts | 277° |
| 2026-04-27 10:48 | 51.58320 | 0.22510 | 30290 ft | 454 kts | 276° |
| 2026-04-27 10:49 | 51.59044 | 0.12485 | 30300 ft | 455 kts | 276° |
| 2026-04-27 10:49 | 51.59753 | 0.02325 | 30295 ft | 457 kts | 276° |
| 2026-04-27 10:50 | 51.60104 | -0.02755 | 30423 ft | 458 kts | 276° |
| 2026-04-27 10:50 | 51.60455 | -0.07852 | 30369 ft | 459 kts | 276° |
| 2026-04-27 10:50 | 51.61154 | -0.18100 | 30306 ft | 460 kts | 276° |
| 2026-04-27 10:51 | 51.61845 | -0.28341 | 30296 ft | 460 kts | 276° |
| 2026-04-27 10:51 | 51.62524 | -0.38519 | 30290 ft | 459 kts | 276° |
| 2026-04-27 10:52 | 51.63201 | -0.48810 | 30294 ft | 459 kts | 276° |
| 2026-04-27 10:52 | 51.63860 | -0.58976 | 30292 ft | 460 kts | 276° |
| 2026-04-27 10:53 | 51.64842 | -0.74392 | 30282 ft | 462 kts | 276° |
| 2026-04-27 10:54 | 51.65489 | -0.84716 | 30296 ft | 464 kts | 276° |
| 2026-04-27 10:54 | 51.66130 | -0.95097 | 30299 ft | 466 kts | 276° |
| 2026-04-27 10:55 | 51.66762 | -1.05505 | 30287 ft | 468 kts | 276° |
| 2026-04-27 10:55 | 51.67386 | -1.15907 | 30292 ft | 469 kts | 277° |
| 2026-04-27 10:56 | 51.68005 | -1.26395 | 30288 ft | 471 kts | 277° |
| 2026-04-27 10:56 | 51.68615 | -1.36889 | 30284 ft | 472 kts | 277° |
| 2026-04-27 10:57 | 51.69220 | -1.47457 | 30298 ft | 473 kts | 277° |
| 2026-04-27 10:57 | 51.69811 | -1.57967 | 30286 ft | 474 kts | 277° |
| 2026-04-27 10:58 | 51.70399 | -1.68560 | 30310 ft | 474 kts | 277° |
| 2026-04-27 10:58 | 51.71108 | -1.79147 | 30305 ft | 475 kts | 279° |
| 2026-04-27 10:59 | 51.71901 | -1.89727 | 30306 ft | 476 kts | 279° |
| 2026-04-27 10:59 | 51.72681 | -2.00347 | 30302 ft | 477 kts | 279° |
| 2026-04-27 11:00 | 51.73803 | -2.16319 | 30320 ft | 479 kts | 279° |
| 2026-04-27 11:00 | 51.74535 | -2.27005 | 30316 ft | 480 kts | 279° |
| 2026-04-27 11:01 | 51.75257 | -2.37660 | 30307 ft | 480 kts | 279° |
| 2026-04-27 11:01 | 51.75975 | -2.48389 | 30302 ft | 481 kts | 279° |
| 2026-04-27 11:02 | 51.76684 | -2.59155 | 30293 ft | 482 kts | 280° |
| 2026-04-27 11:02 | 51.77269 | -2.68135 | 30298 ft | 483 kts | 280° |
| 2026-04-27 11:03 | 51.77963 | -2.78940 | 30292 ft | 484 kts | 280° |
| 2026-04-27 11:03 | 51.78648 | -2.89771 | 30287 ft | 485 kts | 280° |
| 2026-04-27 11:04 | 51.79324 | -3.00610 | 30289 ft | 485 kts | 280° |
| 2026-04-27 11:04 | 51.79992 | -3.11486 | 30298 ft | 486 kts | 280° |
| 2026-04-27 11:05 | 51.80648 | -3.22321 | 30284 ft | 487 kts | 280° |
| 2026-04-27 11:05 | 51.81297 | -3.33229 | 30295 ft | 488 kts | 280° |
| 2026-04-27 11:06 | 51.81939 | -3.44154 | 30289 ft | 488 kts | 281° |
| 2026-04-27 11:06 | 51.82624 | -3.55058 | 30304 ft | 486 kts | 284° |
| 2026-04-27 11:07 | 51.83980 | -3.65719 | 30310 ft | 483 kts | 288° |
| 2026-04-27 11:07 | 51.85398 | -3.76284 | 30301 ft | 484 kts | 288° |
| 2026-04-27 11:08 | 51.86774 | -3.86956 | 30313 ft | 485 kts | 288° |
| 2026-04-27 11:08 | 51.88111 | -3.97684 | 30309 ft | 487 kts | 285° |
| 2026-04-27 11:09 | 51.88721 | -4.08608 | 30324 ft | 492 kts | 279° |
| 2026-04-27 11:09 | 51.89102 | -4.19690 | 30323 ft | 492 kts | 279° |
| 2026-04-27 11:10 | 51.89492 | -4.30751 | 30327 ft | 492 kts | 279° |
| 2026-04-27 11:10 | 51.89902 | -4.41841 | 30338 ft | 493 kts | 280° |
| 2026-04-27 11:11 | 51.90312 | -4.52866 | 30333 ft | 494 kts | 280° |
| 2026-04-27 11:11 | 51.90716 | -4.63979 | 30332 ft | 495 kts | 279° |
| 2026-04-27 11:12 | 51.91106 | -4.75119 | 30340 ft | 495 kts | 279° |
| 2026-04-27 11:12 | 51.91485 | -4.86273 | 30346 ft | 496 kts | 279° |
| 2026-04-27 11:13 | 51.91856 | -4.97451 | 30349 ft | 496 kts | 279° |
| 2026-04-27 11:13 | 51.92214 | -5.08625 | 30343 ft | 497 kts | 279° |
| 2026-04-27 11:14 | 51.92563 | -5.19819 | 30354 ft | 497 kts | 279° |
| 2026-04-27 11:14 | 51.92899 | -5.30946 | 30345 ft | 497 kts | 279° |
| 2026-04-27 11:15 | 51.93228 | -5.42177 | 30353 ft | 497 kts | 279° |
| 2026-04-27 11:15 | 51.93543 | -5.53306 | 30365 ft | 497 kts | 278° |
| 2026-04-27 11:16 | 51.93850 | -5.64508 | 30362 ft | 497 kts | 278° |
| 2026-04-27 11:16 | 51.94145 | -5.75643 | 30374 ft | 497 kts | 278° |
| 2026-04-27 11:17 | 51.94430 | -5.86831 | 30370 ft | 497 kts | 278° |
| 2026-04-27 11:17 | 51.94705 | -5.98032 | 30367 ft | 497 kts | 278° |
| 2026-04-27 11:18 | 51.94969 | -6.09224 | 30379 ft | 497 kts | 278° |
| 2026-04-27 11:18 | 51.95225 | -6.20434 | 30383 ft | 498 kts | 278° |
| 2026-04-27 11:19 | 51.95544 | -6.31646 | 30379 ft | 497 kts | 279° |
| 2026-04-27 11:19 | 51.96028 | -6.42752 | 30379 ft | 496 kts | 280° |
| 2026-04-27 11:20 | 51.96524 | -6.53932 | 30382 ft | 497 kts | 279° |
| 2026-04-27 11:20 | 51.96984 | -6.65128 | 30379 ft | 497 kts | 279° |
| 2026-04-27 11:21 | 51.97418 | -6.76343 | 30379 ft | 498 kts | 279° |
| 2026-04-27 11:21 | 51.97837 | -6.87557 | 30377 ft | 498 kts | 279° |
| 2026-04-27 11:22 | 51.98244 | -6.98703 | 30376 ft | 498 kts | 279° |
| 2026-04-27 11:22 | 51.98645 | -7.09932 | 30380 ft | 498 kts | 279° |
| 2026-04-27 11:23 | 51.99035 | -7.21148 | 30376 ft | 499 kts | 278° |
| 2026-04-27 11:23 | 51.99415 | -7.32397 | 30376 ft | 499 kts | 278° |
| 2026-04-27 11:24 | 51.99784 | -7.43647 | 30375 ft | 499 kts | 278° |
| 2026-04-27 11:24 | 52.00143 | -7.54898 | 30375 ft | 499 kts | 278° |
| 2026-04-27 11:25 | 52.00489 | -7.66083 | 30375 ft | 499 kts | 278° |
| 2026-04-27 11:25 | 52.00827 | -7.77369 | 30378 ft | 499 kts | 278° |
| 2026-04-27 11:26 | 52.01154 | -7.88645 | 30379 ft | 499 kts | 278° |
| 2026-04-27 11:26 | 52.01469 | -7.99910 | 30376 ft | 499 kts | 278° |
| 2026-04-27 11:27 | 52.01773 | -8.11109 | 30369 ft | 499 kts | 277° |
| 2026-04-27 11:27 | 52.02068 | -8.22402 | 30376 ft | 499 kts | 277° |
| 2026-04-27 11:28 | 52.02351 | -8.33672 | 30376 ft | 500 kts | 277° |
| 2026-04-27 11:28 | 52.02626 | -8.44954 | 30380 ft | 500 kts | 277° |
| 2026-04-27 11:29 | 52.02886 | -8.56176 | 30369 ft | 500 kts | 277° |
| 2026-04-27 11:29 | 52.03139 | -8.67524 | 30376 ft | 499 kts | 277° |
| 2026-04-27 11:30 | 52.03378 | -8.78727 | 30391 ft | 500 kts | 277° |
| 2026-04-27 11:30 | 52.03609 | -8.90007 | 30400 ft | 500 kts | 276° |
| 2026-04-27 11:31 | 52.03828 | -9.01315 | 30405 ft | 500 kts | 276° |
| 2026-04-27 11:31 | 52.04036 | -9.12609 | 30410 ft | 500 kts | 276° |
| 2026-04-27 11:32 | 52.04235 | -9.23901 | 30414 ft | 500 kts | 276° |
| 2026-04-27 11:32 | 52.04420 | -9.35126 | 30419 ft | 500 kts | 276° |
| 2026-04-27 11:33 | 52.04596 | -9.46415 | 30425 ft | 499 kts | 276° |
| 2026-04-27 11:33 | 52.04762 | -9.57695 | 30420 ft | 499 kts | 276° |
| 2026-04-27 11:34 | 52.04916 | -9.68964 | 30426 ft | 498 kts | 276° |
| 2026-04-27 11:34 | 52.05059 | -9.80171 | 30421 ft | 498 kts | 275° |
| 2026-04-27 11:35 | 52.05193 | -9.91490 | 30424 ft | 498 kts | 275° |
| 2026-04-27 11:35 | 52.05315 | -10.02670 | 30410 ft | 498 kts | 275° |
| 2026-04-27 11:36 | 52.05425 | -10.13928 | 30417 ft | 497 kts | 275° |
| 2026-04-27 11:36 | 52.05525 | -10.25174 | 30421 ft | 497 kts | 275° |
| 2026-04-27 11:37 | 52.05615 | -10.36438 | 30416 ft | 497 kts | 275° |
| 2026-04-27 11:37 | 52.05695 | -10.47671 | 30417 ft | 497 kts | 275° |
| 2026-04-27 11:38 | 52.05763 | -10.58834 | 30421 ft | 497 kts | 274° |
| 2026-04-27 11:38 | 52.05820 | -10.70075 | 30419 ft | 497 kts | 274° |
| 2026-04-27 11:39 | 52.05867 | -10.81322 | 30418 ft | 497 kts | 274° |
| 2026-04-27 11:39 | 52.05904 | -10.92542 | 30415 ft | 497 kts | 274° |
| 2026-04-27 11:40 | 52.05929 | -11.03702 | 30429 ft | 496 kts | 274° |
| 2026-04-27 11:40 | 52.05944 | -11.14933 | 30412 ft | 496 kts | 274° |
| 2026-04-27 11:41 | 52.05949 | -11.26161 | 30430 ft | 495 kts | 274° |
| 2026-04-27 11:41 | 52.05942 | -11.37291 | 30414 ft | 495 kts | 274° |
| 2026-04-27 11:42 | 52.05925 | -11.48471 | 30417 ft | 495 kts | 273° |
| 2026-04-27 11:42 | 52.05898 | -11.59650 | 30428 ft | 494 kts | 273° |
| 2026-04-27 11:43 | 52.05860 | -11.70825 | 30435 ft | 494 kts | 273° |
| 2026-04-27 11:43 | 52.05812 | -11.82007 | 30426 ft | 494 kts | 273° |
| 2026-04-27 11:44 | 52.05753 | -11.93095 | 30431 ft | 493 kts | 273° |
| 2026-04-27 11:44 | 52.05684 | -12.04260 | 30439 ft | 493 kts | 272° |
| 2026-04-27 11:45 | 52.05618 | -12.13528 | 30438 ft | 493 kts | 272° |
| 2026-04-27 11:45 | 52.05514 | -12.26559 | 30432 ft | 493 kts | 272° |
| 2026-04-27 11:46 | 52.05413 | -12.37694 | 30431 ft | 493 kts | 272° |
| 2026-04-27 11:46 | 52.05302 | -12.48764 | 30432 ft | 492 kts | 272° |
| 2026-04-27 11:47 | 52.05180 | -12.59882 | 30433 ft | 492 kts | 272° |
| 2026-04-27 11:47 | 52.05048 | -12.71016 | 30436 ft | 492 kts | 272° |
| 2026-04-27 11:48 | 52.04907 | -12.82047 | 30436 ft | 491 kts | 271° |
| 2026-04-27 11:48 | 52.04754 | -12.93154 | 30434 ft | 491 kts | 271° |
| 2026-04-27 11:49 | 52.04591 | -13.04229 | 30435 ft | 490 kts | 271° |
| 2026-04-27 11:49 | 52.04418 | -13.15286 | 30434 ft | 489 kts | 271° |
| 2026-04-27 11:50 | 52.04267 | -13.24456 | 30437 ft | 488 kts | 271° |
| 2026-04-27 11:50 | 52.04044 | -13.37282 | 30439 ft | 488 kts | 271° |
| 2026-04-27 11:51 | 52.03876 | -13.46444 | 30440 ft | 488 kts | 271° |
| 2026-04-27 11:52 | 52.03555 | -13.62986 | 30436 ft | 488 kts | 271° |
| 2026-04-27 11:52 | 52.03289 | -13.75832 | 30437 ft | 489 kts | 270° |
| 2026-04-27 11:53 | 52.03090 | -13.85044 | 30442 ft | 490 kts | 270° |
| 2026-04-27 11:53 | 52.02841 | -13.96110 | 30429 ft | 490 kts | 270° |
| 2026-04-27 11:54 | 52.02583 | -14.07133 | 30432 ft | 490 kts | 270° |
| 2026-04-27 11:54 | 52.02313 | -14.18209 | 30437 ft | 490 kts | 270° |
| 2026-04-27 11:55 | 52.02033 | -14.29279 | 30420 ft | 490 kts | 269° |
| 2026-04-27 11:55 | 52.01743 | -14.40328 | 30421 ft | 490 kts | 269° |
| 2026-04-27 11:56 | 52.01443 | -14.51379 | 30428 ft | 489 kts | 269° |
| 2026-04-27 11:56 | 52.01132 | -14.62425 | 30426 ft | 489 kts | 269° |
| 2026-04-27 11:57 | 52.00814 | -14.73403 | 30424 ft | 489 kts | 269° |
| 2026-04-27 11:57 | 52.00485 | -14.84439 | 30417 ft | 489 kts | 268° |
| 2026-04-27 11:58 | 51.99979 | -14.95446 | 30410 ft | 490 kts | 260° |
| 2026-04-27 11:58 | 51.97880 | -15.05967 | 30414 ft | 492 kts | 245° |
| 2026-04-27 11:59 | 51.94447 | -15.15585 | 30416 ft | 493 kts | 239° |
| 2026-04-27 11:59 | 51.90907 | -15.25029 | 30432 ft | 493 kts | 239° |
| 2026-04-27 12:00 | 51.87367 | -15.34561 | 30421 ft | 494 kts | 239° |
| 2026-04-27 12:00 | 51.83849 | -15.44098 | 30406 ft | 494 kts | 239° |
| 2026-04-27 12:01 | 51.80326 | -15.53646 | 30420 ft | 493 kts | 239° |
| 2026-04-27 12:01 | 51.76801 | -15.63164 | 30418 ft | 493 kts | 239° |
| 2026-04-27 12:02 | 51.73267 | -15.72663 | 30401 ft | 493 kts | 239° |
| 2026-04-27 12:02 | 51.69746 | -15.82089 | 30415 ft | 493 kts | 239° |
| 2026-04-27 12:03 | 51.66196 | -15.91555 | 30414 ft | 493 kts | 239° |
| 2026-04-27 12:03 | 51.62638 | -16.01013 | 30412 ft | 494 kts | 239° |
| 2026-04-27 12:04 | 51.59069 | -16.10461 | 30413 ft | 493 kts | 238° |
| 2026-04-27 12:04 | 51.55515 | -16.19835 | 30398 ft | 493 kts | 238° |
| 2026-04-27 12:05 | 51.51936 | -16.29241 | 30403 ft | 492 kts | 238° |
| 2026-04-27 12:05 | 51.48352 | -16.38626 | 30414 ft | 492 kts | 238° |
| 2026-04-27 12:06 | 51.44791 | -16.47919 | 30400 ft | 491 kts | 238° |
| 2026-04-27 12:06 | 51.41212 | -16.57220 | 30403 ft | 490 kts | 238° |
| 2026-04-27 12:07 | 51.37630 | -16.66498 | 30399 ft | 489 kts | 238° |
| 2026-04-27 12:07 | 51.34052 | -16.75734 | 30395 ft | 488 kts | 237° |
| 2026-04-27 12:08 | 51.30493 | -16.84886 | 30394 ft | 487 kts | 237° |
| 2026-04-27 12:08 | 51.26911 | -16.94064 | 30393 ft | 486 kts | 237° |
| 2026-04-27 12:09 | 51.23326 | -17.03220 | 30390 ft | 485 kts | 237° |
| 2026-04-27 12:09 | 51.19743 | -17.12339 | 30388 ft | 485 kts | 237° |
| 2026-04-27 12:10 | 51.16155 | -17.21435 | 30389 ft | 484 kts | 237° |
| 2026-04-27 12:10 | 51.12582 | -17.30460 | 30383 ft | 484 kts | 236° |
| 2026-04-27 12:11 | 51.08988 | -17.39509 | 30381 ft | 483 kts | 236° |
| 2026-04-27 12:11 | 51.05387 | -17.48546 | 30382 ft | 483 kts | 236° |
| 2026-04-27 12:12 | 51.01779 | -17.57567 | 30381 ft | 483 kts | 236° |
| 2026-04-27 12:12 | 50.98171 | -17.66557 | 30379 ft | 482 kts | 236° |
| 2026-04-27 12:13 | 50.94580 | -17.75471 | 30374 ft | 482 kts | 236° |
| 2026-04-27 12:13 | 50.90967 | -17.84413 | 30373 ft | 481 kts | 236° |
| 2026-04-27 12:14 | 50.87352 | -17.93327 | 30367 ft | 480 kts | 236° |
| 2026-04-27 12:14 | 50.83742 | -18.02200 | 30365 ft | 479 kts | 236° |
| 2026-04-27 12:15 | 50.80127 | -18.11054 | 30367 ft | 478 kts | 236° |
| 2026-04-27 12:15 | 50.76536 | -18.19819 | 30365 ft | 477 kts | 236° |
| 2026-04-27 12:16 | 50.72914 | -18.28630 | 30362 ft | 477 kts | 236° |
| 2026-04-27 12:16 | 50.69289 | -18.37417 | 30364 ft | 477 kts | 235° |
| 2026-04-27 12:17 | 50.65665 | -18.46176 | 30344 ft | 477 kts | 235° |
| 2026-04-27 12:17 | 50.62051 | -18.54878 | 30360 ft | 477 kts | 235° |
| 2026-04-27 12:18 | 50.58407 | -18.63625 | 30356 ft | 477 kts | 235° |
| 2026-04-27 12:18 | 50.54753 | -18.72368 | 30337 ft | 478 kts | 235° |
| 2026-04-27 12:19 | 50.51096 | -18.81087 | 30338 ft | 477 kts | 235° |
| 2026-04-27 12:19 | 50.47430 | -18.89800 | 30339 ft | 477 kts | 235° |
| 2026-04-27 12:20 | 50.43763 | -18.98485 | 30354 ft | 477 kts | 235° |
| 2026-04-27 12:20 | 50.40112 | -19.07105 | 30358 ft | 477 kts | 235° |
| 2026-04-27 12:21 | 50.36436 | -19.15753 | 30330 ft | 476 kts | 235° |
| 2026-04-27 12:21 | 50.32753 | -19.24392 | 30332 ft | 476 kts | 235° |
| 2026-04-27 12:22 | 50.29063 | -19.33017 | 30333 ft | 476 kts | 234° |
| 2026-04-27 12:22 | 50.25374 | -19.41614 | 30343 ft | 475 kts | 234° |
| 2026-04-27 12:23 | 50.21706 | -19.50133 | 30329 ft | 475 kts | 234° |
| 2026-04-27 12:23 | 50.18013 | -19.58681 | 30328 ft | 474 kts | 234° |
| 2026-04-27 12:24 | 50.14324 | -19.67194 | 30331 ft | 473 kts | 234° |
| 2026-04-27 12:24 | 50.10630 | -19.75690 | 30324 ft | 472 kts | 234° |
| 2026-04-27 12:25 | 50.06939 | -19.84154 | 30329 ft | 472 kts | 234° |
| 2026-04-27 12:25 | 50.03273 | -19.92538 | 30328 ft | 471 kts | 234° |
| 2026-04-27 12:26 | 49.99580 | -20.00960 | 30321 ft | 471 kts | 234° |
| 2026-04-27 12:26 | 49.95992 | -20.09498 | 30322 ft | 471 kts | 235° |
| 2026-04-27 12:27 | 49.92491 | -20.18010 | 30317 ft | 471 kts | 235° |
| 2026-04-27 12:27 | 49.88963 | -20.26542 | 30316 ft | 470 kts | 235° |
| 2026-04-27 12:28 | 49.85406 | -20.35072 | 30312 ft | 470 kts | 235° |
| 2026-04-27 12:28 | 49.81846 | -20.43558 | 30312 ft | 470 kts | 235° |
| 2026-04-27 12:29 | 49.78279 | -20.52034 | 30310 ft | 470 kts | 235° |
| 2026-04-27 12:29 | 49.74704 | -20.60503 | 30309 ft | 469 kts | 234° |
| 2026-04-27 12:30 | 49.71124 | -20.68957 | 30307 ft | 469 kts | 234° |
| 2026-04-27 12:30 | 49.67560 | -20.77346 | 30305 ft | 470 kts | 234° |
| 2026-04-27 12:31 | 49.63964 | -20.85786 | 30310 ft | 470 kts | 234° |
| 2026-04-27 12:31 | 49.60356 | -20.94224 | 30303 ft | 471 kts | 234° |
| 2026-04-27 12:32 | 49.56741 | -21.02655 | 30303 ft | 471 kts | 234° |
| 2026-04-27 12:32 | 49.53139 | -21.11026 | 30298 ft | 472 kts | 234° |
| 2026-04-27 12:33 | 49.49503 | -21.19451 | 30297 ft | 472 kts | 234° |
| 2026-04-27 12:33 | 49.45863 | -21.27859 | 30294 ft | 473 kts | 234° |
| 2026-04-27 12:34 | 49.42207 | -21.36277 | 30294 ft | 473 kts | 234° |
| 2026-04-27 12:34 | 49.38552 | -21.44667 | 30295 ft | 473 kts | 234° |
| 2026-04-27 12:35 | 49.34899 | -21.53025 | 30291 ft | 473 kts | 234° |
| 2026-04-27 12:35 | 49.31226 | -21.61404 | 30292 ft | 473 kts | 234° |
| 2026-04-27 12:36 | 49.27552 | -21.69756 | 30288 ft | 472 kts | 233° |
| 2026-04-27 12:36 | 49.23893 | -21.78050 | 30287 ft | 472 kts | 233° |
| 2026-04-27 12:37 | 49.20207 | -21.86378 | 30284 ft | 472 kts | 233° |
| 2026-04-27 12:37 | 49.16513 | -21.94700 | 30285 ft | 472 kts | 233° |
| 2026-04-27 12:38 | 49.12817 | -22.03001 | 30285 ft | 472 kts | 233° |
| 2026-04-27 12:38 | 49.09136 | -22.11240 | 30289 ft | 473 kts | 233° |
| 2026-04-27 12:39 | 49.05421 | -22.19531 | 30284 ft | 473 kts | 233° |
| 2026-04-27 12:39 | 49.01702 | -22.27805 | 30282 ft | 473 kts | 233° |
| 2026-04-27 12:40 | 48.97981 | -22.36059 | 30278 ft | 472 kts | 233° |
| 2026-04-27 12:40 | 48.94260 | -22.44287 | 30274 ft | 472 kts | 233° |
| 2026-04-27 12:41 | 48.91182 | -22.51074 | 30276 ft | 472 kts | 233° |
| 2026-04-27 12:41 | 48.86813 | -22.60680 | 30274 ft | 471 kts | 233° |
| 2026-04-27 12:42 | 48.83104 | -22.68807 | 30277 ft | 471 kts | 233° |
| 2026-04-27 12:42 | 48.79985 | -22.75622 | 30270 ft | 471 kts | 233° |
| 2026-04-27 12:43 | 48.76242 | -22.83777 | 30274 ft | 471 kts | 233° |
| 2026-04-27 12:43 | 48.72497 | -22.91914 | 30267 ft | 470 kts | 232° |
| 2026-04-27 12:44 | 48.68746 | -23.00036 | 30266 ft | 470 kts | 232° |
| 2026-04-27 12:44 | 48.65019 | -23.08084 | 30259 ft | 470 kts | 232° |
| 2026-04-27 12:45 | 48.61257 | -23.16185 | 30270 ft | 470 kts | 232° |
| 2026-04-27 12:45 | 48.57493 | -23.24262 | 30253 ft | 470 kts | 232° |
| 2026-04-27 12:46 | 48.53728 | -23.32322 | 30258 ft | 469 kts | 232° |
| 2026-04-27 12:46 | 48.49983 | -23.40312 | 30259 ft | 469 kts | 232° |
| 2026-04-27 12:47 | 48.46203 | -23.48354 | 30255 ft | 469 kts | 232° |
| 2026-04-27 12:47 | 48.42427 | -23.56364 | 30250 ft | 468 kts | 232° |
| 2026-04-27 12:48 | 48.38645 | -23.64362 | 30243 ft | 468 kts | 232° |
| 2026-04-27 12:48 | 48.34891 | -23.72277 | 30244 ft | 467 kts | 232° |
| 2026-04-27 12:49 | 48.31113 | -23.80221 | 30245 ft | 466 kts | 231° |
| 2026-04-27 12:49 | 48.27326 | -23.88160 | 30231 ft | 466 kts | 231° |
| 2026-04-27 12:50 | 48.23549 | -23.96054 | 30226 ft | 465 kts | 231° |
| 2026-04-27 12:50 | 48.19798 | -24.03873 | 30226 ft | 464 kts | 231° |
| 2026-04-27 12:51 | 48.16026 | -24.11712 | 30231 ft | 463 kts | 231° |
| 2026-04-27 12:51 | 48.12253 | -24.19530 | 30226 ft | 462 kts | 231° |
| 2026-04-27 12:52 | 48.08486 | -24.27315 | 30227 ft | 461 kts | 231° |
| 2026-04-27 12:52 | 48.04745 | -24.35022 | 30222 ft | 460 kts | 231° |
| 2026-04-27 12:53 | 47.99106 | -24.46601 | 30219 ft | 458 kts | 231° |
| 2026-04-27 12:53 | 47.95355 | -24.54274 | 30215 ft | 457 kts | 231° |
| 2026-04-27 12:54 | 47.91608 | -24.61920 | 30208 ft | 456 kts | 231° |
| 2026-04-27 12:54 | 47.87869 | -24.69526 | 30212 ft | 455 kts | 231° |
| 2026-04-27 12:55 | 47.84145 | -24.77080 | 30205 ft | 454 kts | 231° |
| 2026-04-27 12:55 | 47.80408 | -24.84641 | 30200 ft | 453 kts | 230° |
| 2026-04-27 12:56 | 47.76659 | -24.92205 | 30202 ft | 453 kts | 230° |
| 2026-04-27 12:56 | 47.72917 | -24.99734 | 30199 ft | 453 kts | 230° |
| 2026-04-27 12:57 | 47.69188 | -25.07217 | 30201 ft | 453 kts | 230° |
| 2026-04-27 12:57 | 47.65432 | -25.14733 | 30196 ft | 453 kts | 230° |
| 2026-04-27 12:58 | 47.61665 | -25.22250 | 30190 ft | 453 kts | 230° |
| 2026-04-27 12:58 | 47.57894 | -25.29755 | 30196 ft | 453 kts | 230° |
| 2026-04-27 12:59 | 47.54119 | -25.37247 | 30187 ft | 454 kts | 230° |
| 2026-04-27 12:59 | 47.50368 | -25.44669 | 30182 ft | 454 kts | 230° |
| 2026-04-27 13:00 | 47.46581 | -25.52145 | 30176 ft | 453 kts | 230° |
| 2026-04-27 13:00 | 47.42793 | -25.59602 | 30175 ft | 453 kts | 230° |
| 2026-04-27 13:01 | 47.39003 | -25.67044 | 30169 ft | 453 kts | 230° |
| 2026-04-27 13:01 | 47.35202 | -25.74487 | 30167 ft | 453 kts | 230° |
| 2026-04-27 13:02 | 47.31403 | -25.81905 | 30164 ft | 453 kts | 229° |
| 2026-04-27 13:02 | 47.27622 | -25.89267 | 30160 ft | 452 kts | 229° |
| 2026-04-27 13:03 | 47.23819 | -25.96652 | 30157 ft | 452 kts | 229° |
| 2026-04-27 13:03 | 47.20014 | -26.04024 | 30153 ft | 452 kts | 229° |
| 2026-04-27 13:04 | 47.16230 | -26.11333 | 30154 ft | 452 kts | 229° |
| 2026-04-27 13:04 | 47.12416 | -26.18681 | 30142 ft | 451 kts | 229° |
| 2026-04-27 13:05 | 47.08606 | -26.26003 | 30140 ft | 451 kts | 229° |
| 2026-04-27 13:05 | 47.04787 | -26.33322 | 30139 ft | 451 kts | 229° |
| 2026-04-27 13:06 | 47.00971 | -26.40616 | 30132 ft | 451 kts | 229° |
| 2026-04-27 13:06 | 46.97173 | -26.47855 | 30128 ft | 451 kts | 229° |
| 2026-04-27 13:07 | 46.93345 | -26.55133 | 30123 ft | 451 kts | 229° |
| 2026-04-27 13:07 | 46.89515 | -26.62396 | 30119 ft | 451 kts | 229° |
| 2026-04-27 13:08 | 46.85683 | -26.69646 | 30113 ft | 451 kts | 229° |
| 2026-04-27 13:08 | 46.81839 | -26.76896 | 30111 ft | 451 kts | 228° |
| 2026-04-27 13:09 | 46.77994 | -26.84130 | 30108 ft | 451 kts | 228° |
| 2026-04-27 13:09 | 46.74140 | -26.91364 | 30101 ft | 451 kts | 228° |
| 2026-04-27 13:10 | 46.70287 | -26.98574 | 30098 ft | 451 kts | 228° |
| 2026-04-27 13:10 | 46.66424 | -27.05786 | 30102 ft | 451 kts | 228° |
| 2026-04-27 13:11 | 46.62581 | -27.12942 | 30102 ft | 451 kts | 227° |
| 2026-04-27 13:11 | 46.58717 | -27.20119 | 30091 ft | 450 kts | 227° |
| 2026-04-27 13:12 | 46.54846 | -27.27289 | 30092 ft | 450 kts | 227° |
| 2026-04-27 13:12 | 46.50976 | -27.34440 | 30087 ft | 450 kts | 227° |
| 2026-04-27 13:13 | 46.47098 | -27.41586 | 30077 ft | 449 kts | 227° |
| 2026-04-27 13:13 | 46.43247 | -27.48664 | 30073 ft | 449 kts | 227° |
| 2026-04-27 13:14 | 46.39377 | -27.55759 | 30073 ft | 449 kts | 226° |
| 2026-04-27 13:14 | 46.35492 | -27.62865 | 30063 ft | 449 kts | 226° |
| 2026-04-27 13:15 | 46.31610 | -27.69946 | 30061 ft | 449 kts | 226° |
| 2026-04-27 13:15 | 46.27724 | -27.77016 | 30062 ft | 449 kts | 226° |
| 2026-04-27 13:16 | 46.23825 | -27.84087 | 30053 ft | 451 kts | 226° |
| 2026-04-27 13:16 | 46.19943 | -27.91119 | 30044 ft | 450 kts | 226° |
| 2026-04-27 13:17 | 46.16039 | -27.98172 | 30044 ft | 447 kts | 226° |
| 2026-04-27 13:17 | 46.12165 | -28.05151 | 30054 ft | 445 kts | 225° |
| 2026-04-27 13:18 | 46.08287 | -28.12117 | 30039 ft | 444 kts | 225° |
| 2026-04-27 13:18 | 46.04436 | -28.19017 | 30039 ft | 445 kts | 225° |
| 2026-04-27 13:19 | 46.00558 | -28.25951 | 30038 ft | 444 kts | 225° |
| 2026-04-27 13:19 | 45.96707 | -28.32821 | 30018 ft | 444 kts | 225° |
| 2026-04-27 13:20 | 45.92826 | -28.39725 | 30012 ft | 442 kts | 225° |
| 2026-04-27 13:20 | 45.88963 | -28.46579 | 30017 ft | 439 kts | 225° |
| 2026-04-27 13:21 | 45.85149 | -28.53331 | 30015 ft | 438 kts | 225° |
| 2026-04-27 13:21 | 45.81312 | -28.60107 | 30014 ft | 437 kts | 225° |
| 2026-04-27 13:22 | 45.77469 | -28.66875 | 30022 ft | 438 kts | 225° |
| 2026-04-27 13:22 | 45.73608 | -28.73658 | 30004 ft | 439 kts | 225° |
| 2026-04-27 13:23 | 45.69743 | -28.80436 | 30010 ft | 438 kts | 225° |
| 2026-04-27 13:23 | 45.65884 | -28.87188 | 29994 ft | 437 kts | 225° |
| 2026-04-27 13:24 | 45.62062 | -28.93859 | 30000 ft | 436 kts | 225° |
| 2026-04-27 13:24 | 45.58221 | -29.00543 | 30015 ft | 435 kts | 225° |
| 2026-04-27 13:25 | 45.54356 | -29.07251 | 29987 ft | 438 kts | 225° |
| 2026-04-27 13:25 | 45.50479 | -29.13969 | 29980 ft | 438 kts | 225° |
| 2026-04-27 13:26 | 45.46607 | -29.20663 | 29982 ft | 438 kts | 224° |
| 2026-04-27 13:26 | 45.42749 | -29.27314 | 29983 ft | 438 kts | 224° |
| 2026-04-27 13:27 | 45.38865 | -29.33996 | 29980 ft | 438 kts | 224° |
| 2026-04-27 13:27 | 45.34975 | -29.40671 | 29976 ft | 438 kts | 224° |
| 2026-04-27 13:28 | 45.31086 | -29.47329 | 29969 ft | 437 kts | 224° |
| 2026-04-27 13:28 | 45.27847 | -29.52863 | 29970 ft | 437 kts | 224° |
| 2026-04-27 13:29 | 45.23325 | -29.60570 | 29970 ft | 436 kts | 224° |
| 2026-04-27 13:29 | 45.19434 | -29.67185 | 29963 ft | 436 kts | 224° |
| 2026-04-27 13:30 | 45.15551 | -29.73771 | 29958 ft | 435 kts | 224° |
| 2026-04-27 13:30 | 45.12297 | -29.79279 | 29956 ft | 435 kts | 224° |
| 2026-04-27 13:31 | 45.08439 | -29.85795 | 29956 ft | 434 kts | 223° |
| 2026-04-27 13:31 | 45.04552 | -29.92347 | 29945 ft | 434 kts | 223° |
| 2026-04-27 13:32 | 45.00569 | -29.98716 | 29945 ft | 429 kts | 218° |
| 2026-04-27 13:32 | 44.96026 | -30.04097 | 29955 ft | 423 kts | 210° |
| 2026-04-27 13:33 | 44.91206 | -30.08911 | 29932 ft | 425 kts | 210° |
| 2026-04-27 13:33 | 44.86370 | -30.13766 | 29943 ft | 427 kts | 210° |
| 2026-04-27 13:34 | 44.81522 | -30.18643 | 29940 ft | 429 kts | 211° |
| 2026-04-27 13:34 | 44.76692 | -30.23497 | 29944 ft | 430 kts | 211° |
| 2026-04-27 13:35 | 44.71820 | -30.28385 | 29938 ft | 430 kts | 211° |
| 2026-04-27 13:35 | 44.66943 | -30.33267 | 29934 ft | 430 kts | 211° |
| 2026-04-27 13:36 | 44.62069 | -30.38136 | 29933 ft | 429 kts | 211° |
| 2026-04-27 13:36 | 44.57209 | -30.42981 | 29923 ft | 428 kts | 211° |
| 2026-04-27 13:37 | 44.52353 | -30.47810 | 29938 ft | 427 kts | 212° |
| 2026-04-27 13:37 | 44.47528 | -30.52598 | 29918 ft | 427 kts | 212° |
| 2026-04-27 13:38 | 44.42673 | -30.57407 | 29924 ft | 426 kts | 212° |
| 2026-04-27 13:38 | 44.37836 | -30.62188 | 29924 ft | 425 kts | 212° |
| 2026-04-27 13:39 | 44.33005 | -30.66954 | 29918 ft | 424 kts | 212° |
| 2026-04-27 13:39 | 44.28174 | -30.71709 | 29921 ft | 424 kts | 213° |
| 2026-04-27 13:40 | 44.23386 | -30.76412 | 29916 ft | 423 kts | 213° |
| 2026-04-27 13:40 | 44.18574 | -30.81129 | 29910 ft | 422 kts | 213° |
| 2026-04-27 13:41 | 44.13770 | -30.85829 | 29907 ft | 421 kts | 213° |
| 2026-04-27 13:41 | 44.08980 | -30.90506 | 29904 ft | 419 kts | 214° |
| 2026-04-27 13:42 | 44.04234 | -30.95130 | 29910 ft | 418 kts | 214° |
| 2026-04-27 13:42 | 43.99478 | -30.99755 | 29918 ft | 416 kts | 214° |
| 2026-04-27 13:43 | 43.94727 | -31.04367 | 29895 ft | 415 kts | 215° |
| 2026-04-27 13:43 | 43.90000 | -31.08945 | 29894 ft | 414 kts | 215° |
| 2026-04-27 13:44 | 43.85314 | -31.13475 | 29894 ft | 413 kts | 215° |
| 2026-04-27 13:44 | 43.80603 | -31.18021 | 29891 ft | 412 kts | 215° |
| 2026-04-27 13:45 | 43.75897 | -31.22552 | 29893 ft | 411 kts | 215° |
| 2026-04-27 13:45 | 43.71198 | -31.27068 | 29893 ft | 410 kts | 216° |
| 2026-04-27 13:46 | 43.66534 | -31.31541 | 29892 ft | 410 kts | 216° |
| 2026-04-27 13:46 | 43.61846 | -31.36029 | 29883 ft | 409 kts | 216° |
| 2026-04-27 13:47 | 43.57169 | -31.40498 | 29886 ft | 408 kts | 216° |
| 2026-04-27 13:47 | 43.52535 | -31.44917 | 29884 ft | 407 kts | 216° |
| 2026-04-27 13:48 | 43.47880 | -31.49348 | 29890 ft | 406 kts | 216° |
| 2026-04-27 13:48 | 43.43222 | -31.53773 | 29881 ft | 405 kts | 216° |
| 2026-04-27 13:49 | 43.38581 | -31.58174 | 29885 ft | 404 kts | 216° |
| 2026-04-27 13:49 | 43.33978 | -31.62530 | 29880 ft | 403 kts | 216° |
| 2026-04-27 13:50 | 43.29356 | -31.66897 | 29882 ft | 403 kts | 216° |
| 2026-04-27 13:50 | 43.24740 | -31.71249 | 29882 ft | 402 kts | 216° |
| 2026-04-27 13:51 | 43.20118 | -31.75599 | 29882 ft | 402 kts | 216° |
| 2026-04-27 13:51 | 43.15505 | -31.79932 | 29879 ft | 401 kts | 216° |
| 2026-04-27 13:52 | 43.10925 | -31.84227 | 29884 ft | 401 kts | 216° |
| 2026-04-27 13:52 | 43.06316 | -31.88540 | 29880 ft | 401 kts | 216° |
| 2026-04-27 13:53 | 42.99400 | -31.94998 | 29879 ft | 401 kts | 216° |
| 2026-04-27 13:54 | 42.94800 | -31.99283 | 29884 ft | 400 kts | 216° |
| 2026-04-27 13:54 | 42.90190 | -32.03569 | 29880 ft | 400 kts | 216° |
| 2026-04-27 13:55 | 42.85622 | -32.07809 | 29883 ft | 399 kts | 216° |
| 2026-04-27 13:55 | 42.81026 | -32.12067 | 29883 ft | 399 kts | 216° |
| 2026-04-27 13:56 | 42.76434 | -32.16314 | 29879 ft | 399 kts | 216° |
| 2026-04-27 13:56 | 42.71844 | -32.20551 | 29883 ft | 399 kts | 216° |
| 2026-04-27 13:57 | 42.67250 | -32.24783 | 29883 ft | 398 kts | 216° |
| 2026-04-27 13:57 | 42.62652 | -32.29012 | 29886 ft | 398 kts | 216° |
| 2026-04-27 13:58 | 42.58086 | -32.33204 | 29884 ft | 398 kts | 216° |
| 2026-04-27 13:58 | 42.53504 | -32.37403 | 29886 ft | 397 kts | 216° |
| 2026-04-27 13:59 | 42.48907 | -32.41608 | 29884 ft | 397 kts | 216° |
| 2026-04-27 13:59 | 42.44353 | -32.45766 | 29889 ft | 397 kts | 216° |
| 2026-04-27 14:00 | 42.39778 | -32.49937 | 29889 ft | 396 kts | 216° |
| 2026-04-27 14:00 | 42.35200 | -32.54101 | 29892 ft | 396 kts | 216° |
| 2026-04-27 14:01 | 42.30615 | -32.58266 | 29885 ft | 396 kts | 216° |
| 2026-04-27 14:01 | 42.26047 | -32.62407 | 29888 ft | 395 kts | 216° |
| 2026-04-27 14:02 | 42.21500 | -32.66522 | 29890 ft | 395 kts | 216° |
| 2026-04-27 14:02 | 42.16923 | -32.70657 | 29893 ft | 395 kts | 216° |
| 2026-04-27 14:03 | 42.12346 | -32.74785 | 29891 ft | 395 kts | 216° |
| 2026-04-27 14:03 | 42.07767 | -32.78907 | 29890 ft | 395 kts | 216° |
| 2026-04-27 14:04 | 42.03217 | -32.82995 | 29894 ft | 395 kts | 216° |
| 2026-04-27 14:04 | 41.98640 | -32.87102 | 29889 ft | 395 kts | 216° |
| 2026-04-27 14:05 | 41.94063 | -32.91200 | 29893 ft | 394 kts | 216° |
| 2026-04-27 14:05 | 41.89514 | -32.95266 | 29902 ft | 394 kts | 216° |
| 2026-04-27 14:06 | 41.84942 | -32.99347 | 29893 ft | 394 kts | 216° |
| 2026-04-27 14:06 | 41.80372 | -33.03417 | 29894 ft | 394 kts | 216° |
| 2026-04-27 14:07 | 41.75804 | -33.07480 | 29892 ft | 394 kts | 216° |
| 2026-04-27 14:07 | 41.71238 | -33.11533 | 29895 ft | 394 kts | 215° |
| 2026-04-27 14:08 | 41.66694 | -33.15560 | 29894 ft | 394 kts | 215° |
| 2026-04-27 14:08 | 41.62124 | -33.19603 | 29897 ft | 394 kts | 215° |
| 2026-04-27 14:09 | 41.57550 | -33.23642 | 29900 ft | 393 kts | 215° |
| 2026-04-27 14:09 | 41.52983 | -33.27668 | 29899 ft | 393 kts | 215° |
| 2026-04-27 14:10 | 41.48409 | -33.31694 | 29903 ft | 393 kts | 215° |
| 2026-04-27 14:10 | 41.43870 | -33.35682 | 29890 ft | 393 kts | 215° |
| 2026-04-27 14:11 | 41.39293 | -33.39697 | 29890 ft | 393 kts | 215° |
| 2026-04-27 14:11 | 41.34719 | -33.43701 | 29896 ft | 393 kts | 215° |
| 2026-04-27 14:12 | 41.30145 | -33.47699 | 29892 ft | 393 kts | 215° |
| 2026-04-27 14:12 | 41.25559 | -33.51701 | 29906 ft | 394 kts | 215° |
| 2026-04-27 14:13 | 41.20977 | -33.55693 | 29909 ft | 394 kts | 215° |
| 2026-04-27 14:13 | 41.16420 | -33.59655 | 29909 ft | 394 kts | 215° |
| 2026-04-27 14:14 | 41.11832 | -33.63639 | 29908 ft | 394 kts | 215° |
| 2026-04-27 14:14 | 41.07241 | -33.67618 | 29908 ft | 394 kts | 215° |
| 2026-04-27 14:15 | 41.02641 | -33.71597 | 29905 ft | 394 kts | 215° |
| 2026-04-27 14:15 | 40.98047 | -33.75566 | 29907 ft | 394 kts | 215° |
| 2026-04-27 14:16 | 40.93475 | -33.79508 | 29910 ft | 394 kts | 215° |
| 2026-04-27 14:16 | 40.89656 | -33.82796 | 29908 ft | 394 kts | 215° |
| 2026-04-27 14:17 | 40.85057 | -33.86750 | 29910 ft | 394 kts | 215° |
| 2026-04-27 14:17 | 40.79680 | -33.91364 | 29916 ft | 394 kts | 215° |
| 2026-04-27 14:18 | 40.75109 | -33.95280 | 29914 ft | 394 kts | 215° |
| 2026-04-27 14:18 | 40.71278 | -33.98556 | 29913 ft | 394 kts | 215° |
| 2026-04-27 14:19 | 40.66673 | -34.02488 | 29909 ft | 394 kts | 215° |
| 2026-04-27 14:19 | 40.62064 | -34.06417 | 29914 ft | 394 kts | 215° |
| 2026-04-27 14:20 | 40.57451 | -34.10343 | 29916 ft | 394 kts | 215° |
| 2026-04-27 14:20 | 40.52864 | -34.14241 | 29914 ft | 395 kts | 215° |
| 2026-04-27 14:21 | 40.48245 | -34.18159 | 29917 ft | 395 kts | 215° |
| 2026-04-27 14:21 | 40.43616 | -34.22079 | 29914 ft | 395 kts | 215° |
| 2026-04-27 14:22 | 40.38990 | -34.25990 | 29911 ft | 396 kts | 215° |
| 2026-04-27 14:22 | 40.34351 | -34.29905 | 29917 ft | 396 kts | 215° |
| 2026-04-27 14:23 | 40.31249 | -34.32520 | 29918 ft | 396 kts | 215° |
| 2026-04-27 14:25 | 40.11199 | -34.49350 | 29923 ft | 397 kts | 215° |
| 2026-04-27 14:25 | 40.06565 | -34.53223 | 29927 ft | 398 kts | 215° |
| 2026-04-27 14:25 | 40.04198 | -34.55199 | 30172 ft | 398 kts | 215° |
| 2026-04-27 14:26 | 40.01899 | -34.57116 | 30528 ft | 395 kts | 216° |
| 2026-04-27 14:26 | 39.99585 | -34.59044 | 30903 ft | 393 kts | 216° |
| 2026-04-27 14:26 | 39.97288 | -34.60956 | 31205 ft | 391 kts | 216° |
| 2026-04-27 14:26 | 39.94993 | -34.62865 | 31468 ft | 391 kts | 216° |
| 2026-04-27 14:27 | 39.92700 | -34.64772 | 31719 ft | 391 kts | 216° |
| 2026-04-27 14:27 | 39.90403 | -34.66681 | 31830 ft | 392 kts | 216° |
| 2026-04-27 14:27 | 39.88100 | -34.68594 | 31876 ft | 392 kts | 216° |
| 2026-04-27 14:28 | 39.83513 | -34.72396 | 31910 ft | 391 kts | 217° |
| 2026-04-27 14:28 | 39.78914 | -34.76202 | 31928 ft | 391 kts | 217° |
| 2026-04-27 14:29 | 39.74317 | -34.80001 | 31920 ft | 391 kts | 217° |
| 2026-04-27 14:29 | 39.69724 | -34.83791 | 31931 ft | 391 kts | 217° |
| 2026-04-27 14:30 | 39.65146 | -34.87562 | 31930 ft | 392 kts | 217° |
| 2026-04-27 14:30 | 39.60539 | -34.91351 | 31930 ft | 392 kts | 217° |
| 2026-04-27 14:31 | 39.55931 | -34.95136 | 31930 ft | 392 kts | 217° |
| 2026-04-27 14:31 | 39.51348 | -34.98894 | 31926 ft | 392 kts | 217° |
| 2026-04-27 14:32 | 39.46759 | -35.02711 | 31932 ft | 392 kts | 217° |
| 2026-04-27 14:32 | 39.42196 | -35.06603 | 31932 ft | 392 kts | 218° |
| 2026-04-27 14:33 | 39.37636 | -35.10493 | 31934 ft | 392 kts | 218° |
| 2026-04-27 14:33 | 39.33068 | -35.14373 | 31936 ft | 393 kts | 218° |
| 2026-04-27 14:34 | 39.28493 | -35.18248 | 31935 ft | 393 kts | 218° |
| 2026-04-27 14:34 | 39.23934 | -35.22101 | 31940 ft | 394 kts | 218° |
| 2026-04-27 14:35 | 39.19346 | -35.25972 | 31940 ft | 394 kts | 218° |
| 2026-04-27 14:35 | 39.14746 | -35.29847 | 31942 ft | 395 kts | 218° |
| 2026-04-27 14:36 | 39.10141 | -35.33719 | 31943 ft | 395 kts | 218° |
| 2026-04-27 14:36 | 39.05567 | -35.37560 | 31940 ft | 395 kts | 218° |
| 2026-04-27 14:37 | 39.00957 | -35.41426 | 31946 ft | 396 kts | 218° |
| 2026-04-27 14:37 | 38.96342 | -35.45289 | 31953 ft | 396 kts | 218° |
| 2026-04-27 14:38 | 38.91719 | -35.49152 | 31941 ft | 396 kts | 218° |
| 2026-04-27 14:38 | 38.87094 | -35.53011 | 31944 ft | 396 kts | 218° |
| 2026-04-27 14:39 | 38.82485 | -35.56851 | 31944 ft | 397 kts | 218° |
| 2026-04-27 14:39 | 38.77840 | -35.60715 | 31954 ft | 397 kts | 218° |
| 2026-04-27 14:40 | 38.73202 | -35.64567 | 31952 ft | 398 kts | 218° |
| 2026-04-27 14:40 | 38.68574 | -35.68405 | 31955 ft | 398 kts | 218° |
| 2026-04-27 14:41 | 38.63922 | -35.72256 | 31956 ft | 398 kts | 218° |
| 2026-04-27 14:41 | 38.59264 | -35.76106 | 31955 ft | 399 kts | 218° |
| 2026-04-27 14:42 | 38.54603 | -35.79953 | 31958 ft | 399 kts | 218° |
| 2026-04-27 14:42 | 38.49935 | -35.83800 | 31961 ft | 399 kts | 218° |
| 2026-04-27 14:43 | 38.45262 | -35.87644 | 31961 ft | 400 kts | 218° |
| 2026-04-27 14:43 | 38.40582 | -35.91488 | 31963 ft | 400 kts | 218° |
| 2026-04-27 14:44 | 38.35892 | -35.95334 | 31964 ft | 401 kts | 218° |
| 2026-04-27 14:44 | 38.31225 | -35.99157 | 31973 ft | 401 kts | 218° |
| 2026-04-27 14:45 | 38.26519 | -36.03004 | 31968 ft | 402 kts | 218° |
| 2026-04-27 14:45 | 38.21808 | -36.06850 | 31962 ft | 402 kts | 218° |
| 2026-04-27 14:46 | 38.17092 | -36.10694 | 31968 ft | 403 kts | 218° |
| 2026-04-27 14:46 | 38.12369 | -36.14537 | 31972 ft | 403 kts | 218° |
| 2026-04-27 14:47 | 38.07638 | -36.18381 | 31972 ft | 403 kts | 218° |
| 2026-04-27 14:47 | 38.02933 | -36.22198 | 31973 ft | 403 kts | 218° |
| 2026-04-27 14:48 | 37.98198 | -36.26033 | 31972 ft | 404 kts | 218° |
| 2026-04-27 14:48 | 37.91091 | -36.31779 | 31978 ft | 404 kts | 218° |
| 2026-04-27 14:49 | 37.86374 | -36.35585 | 31980 ft | 405 kts | 218° |
| 2026-04-27 14:49 | 37.81625 | -36.39411 | 31985 ft | 405 kts | 218° |
| 2026-04-27 14:50 | 37.76859 | -36.43245 | 31981 ft | 406 kts | 218° |
| 2026-04-27 14:50 | 37.72090 | -36.47075 | 31981 ft | 406 kts | 218° |
| 2026-04-27 14:51 | 37.67312 | -36.50907 | 31981 ft | 407 kts | 218° |
| 2026-04-27 14:51 | 37.63332 | -36.54093 | 31982 ft | 407 kts | 218° |
| 2026-04-27 14:52 | 37.57762 | -36.58546 | 31983 ft | 408 kts | 218° |
| 2026-04-27 14:52 | 37.52956 | -36.62382 | 31989 ft | 409 kts | 218° |
| 2026-04-27 14:53 | 37.48151 | -36.66212 | 31993 ft | 409 kts | 218° |
| 2026-04-27 14:53 | 37.43330 | -36.70047 | 31990 ft | 410 kts | 218° |
| 2026-04-27 14:54 | 37.38507 | -36.73880 | 32002 ft | 410 kts | 218° |
| 2026-04-27 14:54 | 37.33664 | -36.77721 | 32003 ft | 411 kts | 218° |
| 2026-04-27 14:55 | 37.28847 | -36.81537 | 31993 ft | 412 kts | 218° |
| 2026-04-27 14:55 | 37.23999 | -36.85370 | 31993 ft | 412 kts | 218° |
| 2026-04-27 14:56 | 37.19132 | -36.89213 | 32003 ft | 412 kts | 218° |
| 2026-04-27 14:56 | 37.14270 | -36.93046 | 32006 ft | 413 kts | 218° |
| 2026-04-27 14:57 | 37.09406 | -36.96875 | 32004 ft | 413 kts | 218° |
| 2026-04-27 14:57 | 37.04546 | -37.00695 | 32005 ft | 414 kts | 218° |
| 2026-04-27 14:58 | 36.99661 | -37.04528 | 32002 ft | 415 kts | 218° |
| 2026-04-27 14:58 | 36.94767 | -37.08363 | 32011 ft | 415 kts | 218° |
| 2026-04-27 14:59 | 36.89862 | -37.12200 | 32008 ft | 416 kts | 218° |
| 2026-04-27 14:59 | 36.84973 | -37.16019 | 32005 ft | 417 kts | 218° |
| 2026-04-27 15:00 | 36.80047 | -37.19862 | 32008 ft | 417 kts | 217° |
| 2026-04-27 15:00 | 36.75120 | -37.23698 | 32020 ft | 418 kts | 217° |
| 2026-04-27 15:01 | 36.70186 | -37.27535 | 32032 ft | 418 kts | 217° |
| 2026-04-27 15:01 | 36.65273 | -37.31349 | 32026 ft | 419 kts | 217° |
| 2026-04-27 15:02 | 36.60321 | -37.35187 | 32022 ft | 419 kts | 217° |
| 2026-04-27 15:02 | 36.55370 | -37.39020 | 32025 ft | 419 kts | 217° |
| 2026-04-27 15:03 | 36.50405 | -37.42856 | 32026 ft | 420 kts | 217° |
| 2026-04-27 15:03 | 36.45435 | -37.46692 | 32028 ft | 420 kts | 217° |
| 2026-04-27 15:04 | 36.40490 | -37.50502 | 32030 ft | 421 kts | 217° |
| 2026-04-27 15:04 | 36.35507 | -37.54335 | 32032 ft | 421 kts | 217° |
| 2026-04-27 15:05 | 36.30519 | -37.58166 | 32038 ft | 421 kts | 217° |
| 2026-04-27 15:05 | 36.25520 | -37.62000 | 32038 ft | 422 kts | 217° |
| 2026-04-27 15:06 | 36.20546 | -37.65809 | 32031 ft | 423 kts | 217° |
| 2026-04-27 15:06 | 36.15543 | -37.69634 | 32038 ft | 423 kts | 217° |
| 2026-04-27 15:07 | 36.10526 | -37.73465 | 32040 ft | 424 kts | 217° |
| 2026-04-27 15:07 | 36.05501 | -37.77295 | 32042 ft | 425 kts | 217° |
| 2026-04-27 15:08 | 36.00465 | -37.81128 | 32044 ft | 425 kts | 217° |
| 2026-04-27 15:08 | 35.95415 | -37.84966 | 32047 ft | 426 kts | 217° |
| 2026-04-27 15:09 | 35.90368 | -37.88796 | 32049 ft | 427 kts | 217° |
| 2026-04-27 15:09 | 35.86152 | -37.91990 | 32049 ft | 427 kts | 217° |
| 2026-04-27 15:10 | 35.80255 | -37.96452 | 32050 ft | 428 kts | 217° |
| 2026-04-27 15:10 | 35.75171 | -38.00292 | 32055 ft | 429 kts | 217° |
| 2026-04-27 15:11 | 35.70074 | -38.04137 | 32058 ft | 430 kts | 217° |
| 2026-04-27 15:11 | 35.65833 | -38.07332 | 32058 ft | 430 kts | 217° |
| 2026-04-27 15:12 | 35.60715 | -38.11181 | 32059 ft | 431 kts | 217° |
| 2026-04-27 15:12 | 35.55585 | -38.15033 | 32064 ft | 432 kts | 217° |
| 2026-04-27 15:13 | 35.50446 | -38.18887 | 32066 ft | 432 kts | 217° |
| 2026-04-27 15:13 | 35.45338 | -38.22711 | 32069 ft | 433 kts | 217° |
| 2026-04-27 15:14 | 35.40193 | -38.26557 | 32067 ft | 434 kts | 217° |
| 2026-04-27 15:14 | 35.35029 | -38.30412 | 32069 ft | 434 kts | 217° |
| 2026-04-27 15:15 | 35.29855 | -38.34268 | 32066 ft | 435 kts | 217° |
| 2026-04-27 15:15 | 35.24714 | -38.38094 | 32070 ft | 435 kts | 217° |
| 2026-04-27 15:16 | 35.19517 | -38.41956 | 32079 ft | 436 kts | 217° |
| 2026-04-27 15:16 | 35.14326 | -38.45807 | 32065 ft | 437 kts | 217° |
| 2026-04-27 15:17 | 35.09125 | -38.49660 | 32077 ft | 437 kts | 216° |
| 2026-04-27 15:17 | 35.03943 | -38.53493 | 32085 ft | 438 kts | 216° |
| 2026-04-27 15:18 | 34.98714 | -38.57356 | 32080 ft | 439 kts | 216° |
| 2026-04-27 15:18 | 34.93479 | -38.61216 | 32078 ft | 440 kts | 216° |
| 2026-04-27 15:19 | 34.88237 | -38.65076 | 32088 ft | 440 kts | 216° |
| 2026-04-27 15:19 | 34.83007 | -38.68922 | 32088 ft | 441 kts | 216° |
| 2026-04-27 15:20 | 34.77735 | -38.72792 | 32088 ft | 442 kts | 216° |
| 2026-04-27 15:20 | 34.72469 | -38.76652 | 32091 ft | 442 kts | 216° |
| 2026-04-27 15:21 | 34.67176 | -38.80526 | 32095 ft | 443 kts | 216° |
| 2026-04-27 15:21 | 34.61920 | -38.84368 | 32097 ft | 444 kts | 216° |
| 2026-04-27 15:22 | 34.56624 | -38.88233 | 32096 ft | 444 kts | 216° |
| 2026-04-27 15:22 | 34.51315 | -38.92101 | 32099 ft | 445 kts | 216° |
| 2026-04-27 15:23 | 34.46001 | -38.95967 | 32104 ft | 445 kts | 216° |
| 2026-04-27 15:23 | 34.40715 | -38.99807 | 32099 ft | 446 kts | 216° |
| 2026-04-27 15:24 | 34.35375 | -39.03680 | 32098 ft | 447 kts | 216° |
| 2026-04-27 15:24 | 34.30030 | -39.07552 | 32099 ft | 447 kts | 216° |
| 2026-04-27 15:25 | 34.24683 | -39.11419 | 32100 ft | 448 kts | 216° |
| 2026-04-27 15:25 | 34.19346 | -39.15272 | 32112 ft | 449 kts | 216° |
| 2026-04-27 15:26 | 34.13970 | -39.19149 | 32105 ft | 449 kts | 216° |
| 2026-04-27 15:26 | 34.08595 | -39.23019 | 32111 ft | 450 kts | 216° |
| 2026-04-27 15:27 | 34.03241 | -39.26868 | 32108 ft | 451 kts | 216° |
| 2026-04-27 15:27 | 33.97845 | -39.30741 | 32113 ft | 451 kts | 216° |
| 2026-04-27 15:28 | 33.92442 | -39.34613 | 32118 ft | 452 kts | 216° |
| 2026-04-27 15:28 | 33.87029 | -39.38488 | 32117 ft | 453 kts | 216° |
| 2026-04-27 15:29 | 33.81640 | -39.42339 | 32120 ft | 453 kts | 216° |
| 2026-04-27 15:29 | 33.76212 | -39.46212 | 32123 ft | 454 kts | 216° |
| 2026-04-27 15:30 | 33.70762 | -39.50095 | 32122 ft | 455 kts | 215° |
| 2026-04-27 15:30 | 33.65314 | -39.53971 | 32124 ft | 455 kts | 215° |
| 2026-04-27 15:31 | 33.59856 | -39.57848 | 32128 ft | 456 kts | 215° |
| 2026-04-27 15:31 | 33.54390 | -39.61725 | 32130 ft | 456 kts | 215° |
| 2026-04-27 15:32 | 33.48956 | -39.65574 | 32131 ft | 457 kts | 215° |
| 2026-04-27 15:32 | 33.43476 | -39.69449 | 32133 ft | 457 kts | 215° |
| 2026-04-27 15:33 | 33.37985 | -39.73327 | 32132 ft | 458 kts | 215° |
| 2026-04-27 15:33 | 33.32490 | -39.77202 | 32135 ft | 458 kts | 215° |
| 2026-04-27 15:34 | 33.26984 | -39.81079 | 32136 ft | 459 kts | 215° |
| 2026-04-27 15:34 | 33.21472 | -39.84954 | 32137 ft | 459 kts | 215° |
| 2026-04-27 15:35 | 33.15995 | -39.88800 | 32143 ft | 460 kts | 215° |
| 2026-04-27 15:35 | 33.10472 | -39.92673 | 32139 ft | 460 kts | 215° |
| 2026-04-27 15:36 | 33.04942 | -39.96545 | 32141 ft | 461 kts | 215° |
| 2026-04-27 15:36 | 32.99676 | -40.00835 | 32145 ft | 455 kts | 224° |
| 2026-04-27 15:37 | 32.95170 | -40.06010 | 32148 ft | 451 kts | 231° |
| 2026-04-27 15:37 | 32.90858 | -40.11530 | 32149 ft | 452 kts | 231° |
| 2026-04-27 15:38 | 32.86591 | -40.16968 | 32148 ft | 453 kts | 231° |
| 2026-04-27 15:38 | 32.82268 | -40.22444 | 32150 ft | 454 kts | 231° |
| 2026-04-27 15:39 | 32.77929 | -40.27920 | 32149 ft | 454 kts | 230° |
| 2026-04-27 15:39 | 32.73591 | -40.33383 | 32151 ft | 454 kts | 230° |
| 2026-04-27 15:40 | 32.69270 | -40.38817 | 32149 ft | 454 kts | 230° |
| 2026-04-27 15:40 | 32.64922 | -40.44277 | 32153 ft | 454 kts | 230° |
| 2026-04-27 15:41 | 32.60582 | -40.49719 | 32157 ft | 454 kts | 230° |
| 2026-04-27 15:41 | 32.56224 | -40.55176 | 32159 ft | 454 kts | 230° |
| 2026-04-27 15:42 | 32.51872 | -40.60617 | 32155 ft | 454 kts | 230° |
| 2026-04-27 15:42 | 32.47540 | -40.66025 | 32162 ft | 455 kts | 230° |
| 2026-04-27 15:43 | 32.43179 | -40.71461 | 32163 ft | 455 kts | 230° |
| 2026-04-27 15:43 | 32.38813 | -40.76895 | 32164 ft | 455 kts | 230° |
| 2026-04-27 15:44 | 32.34441 | -40.82328 | 32162 ft | 456 kts | 230° |
| 2026-04-27 15:44 | 32.30088 | -40.87730 | 32165 ft | 456 kts | 230° |
| 2026-04-27 15:45 | 32.25706 | -40.93159 | 32158 ft | 456 kts | 230° |
| 2026-04-27 15:45 | 32.21320 | -40.98585 | 32175 ft | 456 kts | 230° |
| 2026-04-27 15:46 | 32.16955 | -41.03978 | 32174 ft | 456 kts | 230° |
| 2026-04-27 15:46 | 32.12566 | -41.09391 | 32168 ft | 456 kts | 230° |
| 2026-04-27 15:47 | 32.08176 | -41.14799 | 32168 ft | 456 kts | 230° |
| 2026-04-27 15:47 | 32.03778 | -41.20207 | 32171 ft | 456 kts | 230° |
| 2026-04-27 15:48 | 31.99378 | -41.25610 | 32171 ft | 456 kts | 230° |
| 2026-04-27 15:49 | 31.92781 | -41.33697 | 32169 ft | 457 kts | 230° |
| 2026-04-27 15:49 | 31.88402 | -41.39054 | 32177 ft | 457 kts | 230° |
| 2026-04-27 15:50 | 31.83992 | -41.44443 | 32176 ft | 457 kts | 230° |
| 2026-04-27 15:50 | 31.79574 | -41.49832 | 32174 ft | 457 kts | 230° |
| 2026-04-27 15:51 | 31.75149 | -41.55221 | 32179 ft | 457 kts | 230° |
| 2026-04-27 15:51 | 31.70750 | -41.60573 | 32178 ft | 457 kts | 230° |
| 2026-04-27 15:52 | 31.66325 | -41.65947 | 32180 ft | 457 kts | 230° |
| 2026-04-27 15:52 | 31.61898 | -41.71315 | 32180 ft | 457 kts | 230° |
| 2026-04-27 15:53 | 31.57475 | -41.76672 | 32180 ft | 457 kts | 230° |
| 2026-04-27 15:53 | 31.53042 | -41.82032 | 32182 ft | 457 kts | 230° |
| 2026-04-27 15:54 | 31.48605 | -41.87390 | 32181 ft | 457 kts | 230° |
| 2026-04-27 15:54 | 31.44203 | -41.92699 | 32184 ft | 458 kts | 230° |
| 2026-04-27 15:55 | 31.39761 | -41.98047 | 32184 ft | 458 kts | 230° |
| 2026-04-27 15:55 | 31.35316 | -42.03391 | 32187 ft | 458 kts | 230° |
| 2026-04-27 15:56 | 31.30866 | -42.08732 | 32188 ft | 457 kts | 230° |
| 2026-04-27 15:56 | 31.26425 | -42.14057 | 32189 ft | 457 kts | 230° |
| 2026-04-27 15:57 | 31.21979 | -42.19378 | 32190 ft | 457 kts | 230° |
| 2026-04-27 15:57 | 31.17539 | -42.24686 | 32193 ft | 456 kts | 230° |
| 2026-04-27 15:58 | 31.13128 | -42.29951 | 32192 ft | 456 kts | 230° |
| 2026-04-27 15:58 | 31.08682 | -42.35252 | 32192 ft | 456 kts | 230° |
| 2026-04-27 15:59 | 31.04259 | -42.40516 | 32194 ft | 456 kts | 230° |
| 2026-04-27 15:59 | 30.99818 | -42.45794 | 32195 ft | 455 kts | 230° |
| 2026-04-27 16:00 | 30.96095 | -42.50214 | 32197 ft | 455 kts | 230° |
| 2026-04-27 16:00 | 30.91681 | -42.55448 | 32212 ft | 455 kts | 230° |
| 2026-04-27 16:01 | 30.87246 | -42.60698 | 32192 ft | 455 kts | 230° |
| 2026-04-27 16:01 | 30.82809 | -42.65944 | 32190 ft | 454 kts | 230° |
| 2026-04-27 16:02 | 30.78369 | -42.71185 | 32199 ft | 454 kts | 230° |
| 2026-04-27 16:02 | 30.73932 | -42.76416 | 32204 ft | 453 kts | 230° |
| 2026-04-27 16:03 | 30.69512 | -42.81620 | 32195 ft | 452 kts | 230° |
| 2026-04-27 16:03 | 30.65117 | -42.86787 | 32199 ft | 452 kts | 230° |
| 2026-04-27 16:04 | 30.60698 | -42.91974 | 32203 ft | 451 kts | 230° |
| 2026-04-27 16:04 | 30.56283 | -42.97151 | 32196 ft | 450 kts | 230° |
| 2026-04-27 16:05 | 30.51871 | -43.02316 | 32200 ft | 450 kts | 230° |
| 2026-04-27 16:05 | 30.47466 | -43.07466 | 32210 ft | 450 kts | 230° |
| 2026-04-27 16:06 | 30.43053 | -43.12619 | 32202 ft | 450 kts | 231° |
| 2026-04-27 16:06 | 30.38638 | -43.17768 | 32207 ft | 449 kts | 231° |
| 2026-04-27 16:07 | 30.34256 | -43.22869 | 32209 ft | 449 kts | 231° |
| 2026-04-27 16:07 | 30.29854 | -43.27988 | 32208 ft | 448 kts | 231° |
| 2026-04-27 16:08 | 30.25461 | -43.33090 | 32206 ft | 447 kts | 231° |
| 2026-04-27 16:08 | 30.21074 | -43.38178 | 32209 ft | 446 kts | 231° |
| 2026-04-27 16:09 | 30.16698 | -43.43246 | 32207 ft | 445 kts | 231° |
| 2026-04-27 16:09 | 30.10177 | -43.50787 | 32211 ft | 444 kts | 231° |
| 2026-04-27 16:10 | 30.01445 | -43.60860 | 32207 ft | 443 kts | 231° |
| 2026-04-27 16:11 | 29.94904 | -43.68388 | 32211 ft | 442 kts | 231° |
| 2026-04-27 16:12 | 29.88389 | -43.75873 | 32211 ft | 441 kts | 231° |
| 2026-04-27 16:13 | 29.81882 | -43.83333 | 32215 ft | 441 kts | 231° |
| 2026-04-27 16:13 | 29.75361 | -43.90794 | 32214 ft | 440 kts | 231° |
| 2026-04-27 16:14 | 29.66690 | -44.00693 | 32211 ft | 439 kts | 231° |
| 2026-04-27 16:15 | 29.58015 | -44.10572 | 32214 ft | 438 kts | 231° |
| 2026-04-27 16:16 | 29.49364 | -44.20397 | 32215 ft | 437 kts | 231° |
| 2026-04-27 16:17 | 29.40745 | -44.30161 | 32219 ft | 436 kts | 231° |
| 2026-04-27 16:18 | 29.32120 | -44.39909 | 32215 ft | 435 kts | 231° |
| 2026-04-27 16:19 | 29.27806 | -44.44775 | 32232 ft | 434 kts | 231° |
| 2026-04-27 16:20 | 29.19209 | -44.54455 | 32222 ft | 435 kts | 231° |
| 2026-04-27 16:21 | 29.12714 | -44.61752 | 32223 ft | 435 kts | 231° |
| 2026-04-27 16:22 | 29.04071 | -44.71440 | 32223 ft | 437 kts | 231° |
| 2026-04-27 16:22 | 28.97544 | -44.78741 | 32226 ft | 438 kts | 231° |
| 2026-04-27 16:23 | 28.91005 | -44.86042 | 32223 ft | 438 kts | 230° |
| 2026-04-27 16:24 | 28.86663 | -44.90881 | 32223 ft | 439 kts | 230° |
| 2026-04-27 16:25 | 28.77905 | -45.00625 | 32223 ft | 440 kts | 230° |
| 2026-04-27 16:26 | 28.69162 | -45.10328 | 32224 ft | 440 kts | 231° |
| 2026-04-27 16:27 | 28.60390 | -45.20039 | 32224 ft | 439 kts | 230° |
| 2026-04-27 16:28 | 28.49425 | -45.32145 | 32217 ft | 439 kts | 230° |
| 2026-04-27 16:29 | 28.38490 | -45.44181 | 32223 ft | 438 kts | 230° |
| 2026-04-27 16:30 | 28.29734 | -45.53793 | 32225 ft | 437 kts | 230° |
| 2026-04-27 16:31 | 28.18820 | -45.65741 | 32218 ft | 437 kts | 230° |
| 2026-04-27 16:32 | 28.12249 | -45.72918 | 32234 ft | 436 kts | 230° |
| 2026-04-27 16:33 | 28.05692 | -45.80067 | 32226 ft | 436 kts | 230° |
| 2026-04-27 16:33 | 28.01314 | -45.84833 | 32225 ft | 436 kts | 230° |
| 2026-04-27 16:34 | 27.99127 | -45.87211 | 32225 ft | 436 kts | 230° |